createdAt,value
2018-11-23T00:02:03.637Z,2.00
2018-11-23T00:04:32.033Z,2.00
2018-11-23T00:07:00.348Z,2.00
2018-11-23T00:09:28.661Z,2.00
2018-11-23T00:11:57.029Z,1.90
2018-11-23T00:14:25.342Z,2.00
2018-11-23T00:16:53.647Z,2.00
2018-11-23T00:19:21.985Z,1.90
2018-11-23T00:21:50.297Z,1.90
2018-11-23T00:24:18.592Z,1.90
2018-11-23T00:26:46.890Z,1.90
2018-11-23T00:29:15.197Z,2.00
2018-11-23T00:31:43.519Z,2.00
2018-11-23T00:34:11.828Z,1.90
2018-11-23T00:36:40.133Z,1.90
2018-11-23T00:39:08.578Z,2.00
2018-11-23T00:41:37.028Z,2.00
2018-11-23T00:44:05.934Z,1.90
2018-11-23T00:46:34.356Z,1.90
2018-11-23T00:49:02.645Z,1.90
2018-11-23T00:51:30.977Z,1.90
2018-11-23T00:53:59.376Z,1.90
2018-11-23T00:56:27.777Z,2.00
2018-11-23T00:58:56.074Z,1.90
2018-11-23T01:01:24.466Z,2.00
2018-11-23T01:03:52.829Z,1.90
2018-11-23T01:06:21.157Z,2.00
2018-11-23T01:08:49.457Z,1.90
2018-11-23T01:11:17.788Z,1.90
2018-11-23T01:13:46.091Z,1.90
2018-11-23T01:16:14.408Z,1.90
2018-11-23T01:18:42.666Z,1.90
2018-11-23T01:21:10.966Z,1.90
2018-11-23T01:23:39.283Z,1.90
2018-11-23T01:26:07.607Z,1.90
2018-11-23T01:28:35.954Z,1.90
2018-11-23T01:31:04.269Z,1.90
2018-11-23T01:33:32.584Z,1.90
2018-11-23T01:36:00.881Z,1.90
2018-11-23T01:38:29.209Z,1.90
2018-11-23T01:40:57.574Z,1.90
2018-11-23T01:43:25.876Z,1.90
2018-11-23T01:45:54.234Z,1.80
2018-11-23T01:48:22.569Z,1.80
2018-11-23T01:50:50.901Z,1.80
2018-11-23T01:53:19.166Z,1.80
2018-11-23T01:55:47.517Z,1.80
2018-11-23T01:58:15.821Z,1.80
2018-11-23T02:00:44.130Z,1.80
2018-11-23T02:03:12.449Z,1.80
2018-11-23T02:05:40.789Z,1.80
2018-11-23T02:08:09.136Z,1.80
2018-11-23T02:10:37.453Z,1.80
2018-11-23T02:13:05.886Z,1.80
2018-11-23T02:15:34.205Z,1.80
2018-11-23T02:18:02.508Z,1.80
2018-11-23T02:20:30.825Z,1.80
2018-11-23T02:22:59.104Z,1.80
2018-11-23T02:25:27.417Z,1.80
2018-11-23T02:27:55.722Z,1.80
2018-11-23T02:30:25.066Z,1.80
2018-11-23T02:32:53.566Z,1.80
2018-11-23T02:35:21.858Z,1.80
2018-11-23T02:37:50.218Z,1.80
2018-11-23T02:40:19.485Z,1.80
2018-11-23T02:42:47.833Z,1.80
2018-11-23T02:45:17.892Z,1.80
2018-11-23T02:47:46.859Z,1.80
2018-11-23T02:50:15.230Z,1.80
2018-11-23T02:52:43.969Z,1.80
2018-11-23T02:55:13.465Z,1.80
2018-11-23T02:57:41.812Z,1.80
2018-11-23T03:00:12.173Z,1.80
2018-11-23T03:02:40.481Z,1.80
2018-11-23T03:05:10.159Z,1.80
2018-11-23T03:07:38.584Z,1.70
2018-11-23T03:10:08.057Z,1.70
2018-11-23T03:12:36.605Z,1.80
2018-11-23T03:15:05.357Z,1.80
2018-11-23T03:17:33.634Z,1.80
2018-11-23T03:20:01.953Z,1.80
2018-11-23T03:22:30.257Z,1.80
2018-11-23T03:24:58.561Z,1.70
2018-11-23T03:27:26.865Z,1.70
2018-11-23T03:29:55.180Z,1.70
2018-11-23T03:32:23.485Z,1.70
2018-11-23T03:34:51.870Z,1.70
2018-11-23T03:37:20.114Z,1.70
2018-11-23T03:39:48.387Z,1.70
2018-11-23T03:42:16.661Z,1.80
2018-11-23T03:44:44.898Z,1.80
2018-11-23T03:47:13.172Z,1.80
2018-11-23T03:49:41.436Z,1.80
2018-11-23T03:52:09.700Z,1.80
2018-11-23T03:54:39.031Z,1.80
2018-11-23T03:57:07.308Z,1.80
2018-11-23T03:59:35.548Z,1.80
2018-11-23T04:02:03.868Z,1.80
2018-11-23T04:04:32.139Z,1.80
2018-11-23T04:07:00.400Z,1.70
2018-11-23T04:09:28.675Z,1.70
2018-11-23T04:11:56.960Z,1.80
2018-11-23T04:14:25.187Z,1.80
2018-11-23T04:16:53.591Z,1.70
2018-11-23T04:19:21.839Z,1.80
2018-11-23T04:21:50.098Z,1.80
2018-11-23T04:24:18.330Z,1.70
2018-11-23T04:26:46.652Z,1.70
2018-11-23T04:29:14.886Z,1.80
2018-11-23T04:31:43.146Z,1.80
2018-11-23T04:34:11.416Z,1.80
2018-11-23T04:36:39.675Z,1.80
2018-11-23T04:39:08.397Z,1.70
2018-11-23T04:41:36.679Z,1.70
2018-11-23T04:44:05.161Z,1.70
2018-11-23T04:46:33.416Z,1.70
2018-11-23T04:49:01.679Z,1.70
2018-11-23T04:51:30.017Z,1.70
2018-11-23T04:53:58.262Z,1.70
2018-11-23T04:56:26.602Z,1.70
2018-11-23T04:58:54.884Z,1.60
2018-11-23T05:01:23.171Z,1.70
2018-11-23T05:03:51.606Z,1.70
2018-11-23T05:06:19.890Z,1.70
2018-11-23T05:08:48.210Z,1.60
2018-11-23T05:11:16.508Z,1.70
2018-11-23T05:13:44.890Z,1.70
2018-11-23T05:16:13.143Z,1.70
2018-11-23T05:18:41.470Z,1.70
2018-11-23T05:21:09.731Z,1.70
2018-11-23T05:23:38.017Z,1.70
2018-11-23T05:26:06.575Z,1.70
2018-11-23T05:28:34.855Z,1.70
2018-11-23T05:31:03.231Z,1.70
2018-11-23T05:33:32.639Z,1.70
2018-11-23T05:36:00.935Z,1.70
2018-11-23T05:38:29.175Z,1.70
2018-11-23T05:40:57.435Z,1.70
2018-11-23T05:43:25.683Z,1.80
2018-11-23T05:45:53.934Z,1.80
2018-11-23T05:48:26.803Z,1.70
2018-11-23T05:50:50.482Z,1.80
2018-11-23T05:53:19.678Z,1.80
2018-11-23T05:55:47.979Z,1.80
2018-11-23T05:58:27.303Z,1.80
2018-11-23T06:00:55.556Z,1.80
2018-11-23T06:03:23.804Z,1.80
2018-11-23T06:05:52.071Z,1.80
2018-11-23T06:08:20.359Z,1.80
2018-11-23T06:10:48.678Z,1.80
2018-11-23T06:13:16.922Z,1.80
2018-11-23T06:15:45.831Z,1.80
2018-11-23T06:18:13.446Z,1.80
2018-11-23T06:20:41.699Z,1.80
2018-11-23T06:23:10.014Z,1.80
2018-11-23T06:25:43.446Z,1.70
2018-11-23T06:28:11.716Z,1.80
2018-11-23T06:30:39.976Z,1.80
2018-11-23T06:33:37.354Z,1.80
2018-11-23T06:36:05.706Z,1.80
2018-11-23T06:38:34.023Z,1.80
2018-11-23T06:41:02.311Z,1.70
2018-11-23T06:43:30.629Z,1.80
2018-11-23T06:45:59.847Z,1.80
2018-11-23T06:48:28.241Z,1.70
2018-11-23T06:50:56.751Z,1.80
2018-11-23T06:53:25.198Z,1.70
2018-11-23T06:55:53.503Z,1.70
2018-11-23T06:58:21.811Z,1.70
2018-11-23T07:00:50.059Z,1.70
2018-11-23T07:03:18.343Z,1.70
2018-11-23T07:05:46.579Z,1.70
2018-11-23T07:08:14.849Z,1.70
2018-11-23T07:10:43.155Z,1.70
2018-11-23T07:13:11.447Z,1.70
2018-11-23T07:15:39.987Z,1.70
2018-11-23T07:18:08.833Z,1.70
2018-11-23T07:20:37.123Z,1.70
2018-11-23T07:23:05.510Z,1.80
2018-11-23T07:25:33.758Z,1.70
2018-11-23T07:28:02.024Z,1.80
2018-11-23T07:30:30.707Z,1.80
2018-11-23T07:32:58.968Z,1.80
2018-11-23T07:35:27.248Z,1.70
2018-11-23T07:37:55.510Z,1.80
2018-11-23T07:40:38.019Z,1.80
2018-11-23T07:43:06.291Z,1.80
2018-11-23T07:45:34.539Z,1.80
2018-11-23T07:48:02.823Z,1.80
2018-11-23T07:50:31.071Z,1.80
2018-11-23T07:52:59.334Z,1.80
2018-11-23T07:55:27.582Z,1.80
2018-11-23T07:57:55.856Z,1.80
2018-11-23T08:00:24.839Z,1.80
2018-11-23T08:02:53.099Z,1.80
2018-11-23T08:05:21.578Z,1.80
2018-11-23T08:07:49.899Z,1.80
2018-11-23T08:10:17.371Z,1.80
2018-11-23T08:12:46.935Z,1.80
2018-11-23T08:15:19.874Z,1.80
2018-11-23T08:17:48.122Z,1.80
2018-11-23T08:20:18.682Z,1.80
2018-11-23T08:22:47.162Z,1.80
2018-11-23T08:25:16.563Z,1.80
2018-11-23T08:27:45.762Z,1.80
2018-11-23T08:30:19.199Z,1.80
2018-11-23T08:32:47.599Z,1.80
2018-11-23T08:35:16.025Z,1.80
2018-11-23T08:37:44.379Z,1.80
2018-11-23T08:40:16.352Z,1.90
2018-11-23T08:42:45.475Z,1.90
2018-11-23T08:45:16.123Z,1.90
2018-11-23T08:47:44.386Z,1.90
2018-11-23T08:50:16.235Z,1.90
2018-11-23T08:52:44.470Z,1.90
2018-11-23T08:55:13.597Z,1.90
2018-11-23T08:57:42.183Z,1.90
2018-11-23T09:00:14.600Z,1.90
2018-11-23T09:02:43.767Z,1.90
2018-11-23T09:05:12.004Z,1.90
2018-11-23T09:07:40.290Z,2.00
2018-11-23T09:10:11.352Z,2.00
2018-11-23T09:12:39.603Z,2.00
2018-11-23T09:15:09.335Z,2.00
2018-11-23T09:17:37.602Z,2.00
2018-11-23T09:20:07.280Z,2.00
2018-11-23T09:22:35.508Z,2.00
2018-11-23T09:25:03.874Z,2.00
2018-11-23T09:27:32.171Z,2.00
2018-11-23T09:30:00.424Z,2.00
2018-11-23T09:32:28.662Z,2.00
2018-11-23T09:34:56.965Z,2.00
2018-11-23T09:37:25.191Z,2.00
2018-11-23T09:39:53.495Z,2.00
2018-11-23T09:42:21.759Z,2.00
2018-11-23T09:44:50.094Z,2.00
2018-11-23T09:47:18.351Z,2.00
2018-11-23T09:49:46.607Z,2.00
2018-11-23T09:52:14.867Z,2.10
2018-11-23T09:54:43.130Z,2.00
2018-11-23T09:57:11.407Z,2.10
2018-11-23T09:59:39.690Z,2.10
2018-11-23T10:02:07.910Z,2.10
2018-11-23T10:04:36.142Z,2.00
2018-11-23T10:07:04.413Z,2.10
2018-11-23T10:09:32.687Z,2.10
2018-11-23T10:12:00.959Z,2.10
2018-11-23T10:14:29.257Z,2.10
2018-11-23T10:16:57.487Z,2.10
2018-11-23T10:19:29.688Z,2.10
2018-11-23T10:21:57.946Z,2.10
2018-11-23T10:24:26.251Z,2.20
2018-11-23T10:26:54.462Z,2.20
2018-11-23T10:29:23.099Z,2.20
2018-11-23T10:31:51.379Z,2.30
2018-11-23T10:34:19.623Z,2.30
2018-11-23T10:36:47.897Z,2.30
2018-11-23T10:39:16.604Z,2.30
2018-11-23T10:41:44.942Z,2.40
2018-11-23T10:44:13.204Z,2.40
2018-11-23T10:46:41.621Z,2.40
2018-11-23T10:49:10.139Z,2.40
2018-11-23T10:51:38.366Z,2.40
2018-11-23T10:54:06.659Z,2.40
2018-11-23T10:56:34.990Z,2.40
2018-11-23T10:59:03.232Z,2.50
2018-11-23T11:01:36.983Z,2.40
2018-11-23T11:04:10.894Z,2.40
2018-11-23T11:06:44.512Z,2.40
2018-11-23T11:09:12.755Z,2.50
2018-11-23T11:11:41.491Z,2.50
2018-11-23T11:14:09.750Z,2.50
2018-11-23T11:16:38.036Z,2.60
2018-11-23T11:19:06.979Z,2.60
2018-11-23T11:21:35.364Z,2.60
2018-11-23T11:24:03.964Z,2.60
2018-11-23T11:26:32.203Z,2.70
2018-11-23T11:29:00.460Z,2.70
2018-11-23T11:31:29.068Z,2.70
2018-11-23T11:33:57.411Z,2.70
2018-11-23T11:36:25.667Z,2.70
2018-11-23T11:38:53.950Z,2.70
2018-11-23T11:41:22.227Z,2.70
2018-11-23T11:43:50.674Z,2.70
2018-11-23T11:46:18.911Z,2.80
2018-11-23T11:48:47.146Z,2.80
2018-11-23T11:51:17.680Z,2.80
2018-11-23T11:53:43.744Z,2.80
2018-11-23T11:56:11.973Z,2.80
2018-11-23T11:58:41.314Z,2.80
2018-11-23T12:01:09.575Z,2.80
2018-11-23T12:03:37.879Z,2.90
2018-11-23T12:06:06.214Z,2.90
2018-11-23T12:08:34.442Z,2.90
2018-11-23T12:11:02.728Z,3.00
2018-11-23T12:13:30.975Z,2.90
2018-11-23T12:15:59.242Z,3.00
2018-11-23T12:18:27.503Z,2.90
2018-11-23T12:20:55.779Z,2.90
2018-11-23T12:23:24.051Z,2.90
2018-11-23T12:25:56.296Z,2.90
2018-11-23T12:28:24.552Z,2.90
2018-11-23T12:30:52.814Z,3.00
2018-11-23T12:33:21.156Z,3.00
2018-11-23T12:35:49.420Z,3.00
2018-11-23T12:38:17.704Z,3.00
2018-11-23T12:40:45.938Z,3.10
2018-11-23T12:43:14.222Z,3.10
2018-11-23T12:45:42.478Z,3.10
2018-11-23T12:48:10.751Z,3.20
2018-11-23T12:50:39.021Z,3.20
2018-11-23T12:53:07.295Z,3.10
2018-11-23T12:55:35.607Z,3.20
2018-11-23T12:58:03.872Z,3.20
2018-11-23T13:00:32.116Z,3.20
2018-11-23T13:03:04.552Z,3.20
2018-11-23T13:05:33.762Z,3.20
2018-11-23T13:08:03.488Z,3.20
2018-11-23T13:10:32.056Z,3.20
2018-11-23T13:13:00.910Z,3.20
2018-11-23T13:15:29.256Z,3.20
2018-11-23T13:17:58.247Z,3.20
2018-11-23T13:20:26.597Z,3.20
2018-11-23T13:22:54.861Z,3.20
2018-11-23T13:25:24.627Z,3.20
2018-11-23T13:27:53.002Z,3.30
2018-11-23T13:30:25.854Z,3.30
2018-11-23T13:32:54.220Z,3.30
2018-11-23T13:35:22.488Z,3.30
2018-11-23T13:37:50.748Z,3.30
2018-11-23T13:40:21.239Z,3.40
2018-11-23T13:42:50.012Z,3.30
2018-11-23T13:45:19.711Z,3.40
2018-11-23T13:47:47.985Z,3.40
2018-11-23T13:50:17.589Z,3.40
2018-11-23T13:52:46.811Z,3.30
2018-11-23T13:55:15.102Z,3.30
2018-11-23T13:57:43.411Z,3.30
2018-11-23T14:00:14.876Z,3.30
2018-11-23T14:02:43.487Z,3.30
2018-11-23T14:05:13.411Z,3.30
2018-11-23T14:07:42.306Z,3.30
2018-11-23T14:10:12.592Z,3.40
2018-11-23T14:12:41.074Z,3.30
2018-11-23T14:15:12.522Z,3.30
2018-11-23T14:17:41.255Z,3.30
2018-11-23T14:20:11.290Z,3.20
2018-11-23T14:22:39.548Z,3.20
2018-11-23T14:25:09.203Z,3.20
2018-11-23T14:27:37.508Z,3.20
2018-11-23T14:30:08.912Z,3.20
2018-11-23T14:32:37.291Z,3.20
2018-11-23T14:35:05.974Z,3.10
2018-11-23T14:37:34.224Z,3.10
2018-11-23T14:40:02.471Z,3.10
2018-11-23T14:42:30.725Z,3.10
2018-11-23T14:44:58.982Z,3.10
2018-11-23T14:47:27.267Z,3.10
2018-11-23T14:49:55.527Z,3.10
2018-11-23T14:52:23.822Z,3.10
2018-11-23T14:54:52.103Z,3.00
2018-11-23T14:57:20.487Z,3.00
2018-11-23T14:59:48.791Z,3.00
2018-11-23T15:02:17.095Z,3.00
2018-11-23T15:04:45.344Z,3.00
2018-11-23T15:07:14.853Z,3.00
2018-11-23T15:09:41.970Z,3.00
2018-11-23T15:12:10.239Z,3.00
2018-11-23T15:14:38.471Z,3.00
2018-11-23T15:17:06.731Z,3.00
2018-11-23T15:19:35.011Z,3.00
2018-11-23T15:22:03.304Z,3.00
2018-11-23T15:24:31.616Z,3.00
2018-11-23T15:26:59.880Z,3.00
2018-11-23T15:29:28.136Z,3.00
2018-11-23T15:31:56.450Z,3.00
2018-11-23T15:34:24.691Z,3.00
2018-11-23T15:36:52.951Z,3.00
2018-11-23T15:39:21.214Z,3.00
2018-11-23T15:41:49.500Z,2.90
2018-11-23T15:44:18.893Z,2.90
2018-11-23T15:46:47.135Z,2.90
2018-11-23T15:49:15.410Z,2.90
2018-11-23T15:51:43.732Z,2.90
2018-11-23T15:54:12.007Z,2.90
2018-11-23T15:56:40.283Z,2.90
2018-11-23T15:59:08.539Z,2.90
2018-11-23T16:01:36.806Z,2.90
2018-11-23T16:04:05.134Z,2.90
2018-11-23T16:06:33.488Z,2.90
2018-11-23T16:09:02.471Z,2.90
2018-11-23T16:11:30.744Z,2.90
2018-11-23T16:13:59.007Z,2.90
2018-11-23T16:16:27.355Z,2.90
2018-11-23T16:18:55.649Z,2.90
2018-11-23T16:21:23.928Z,2.90
2018-11-23T16:23:52.385Z,2.90
2018-11-23T16:26:20.710Z,2.90
2018-11-23T16:28:48.971Z,2.90
2018-11-23T16:31:17.245Z,2.90
2018-11-23T16:33:45.538Z,2.90
2018-11-23T16:36:13.819Z,2.90
2018-11-23T16:38:42.220Z,2.90
2018-11-23T16:41:10.571Z,2.90
2018-11-23T16:43:38.834Z,2.90
2018-11-23T16:46:07.171Z,2.90
2018-11-23T16:48:35.421Z,2.80
2018-11-23T16:51:03.780Z,2.90
2018-11-23T16:53:32.172Z,2.80
2018-11-23T16:56:00.421Z,2.80
2018-11-23T16:58:28.678Z,2.80
2018-11-23T17:00:57.023Z,2.80
2018-11-23T17:03:25.279Z,2.80
2018-11-23T17:05:54.971Z,2.80
2018-11-23T17:08:23.242Z,2.80
2018-11-23T17:10:51.661Z,2.90
2018-11-23T17:13:19.983Z,2.90
2018-11-23T17:15:48.222Z,2.80
2018-11-23T17:18:17.048Z,2.80
2018-11-23T17:20:45.371Z,2.80
2018-11-23T17:23:13.935Z,2.80
2018-11-23T17:25:42.179Z,2.80
2018-11-23T17:28:11.326Z,2.80
2018-11-23T17:30:39.912Z,2.80
2018-11-23T17:33:08.240Z,2.80
2018-11-23T17:35:36.584Z,2.80
2018-11-23T17:38:05.069Z,2.80
2018-11-23T17:40:35.296Z,2.80
2018-11-23T17:43:03.583Z,2.80
2018-11-23T17:45:32.795Z,2.80
2018-11-23T17:48:01.329Z,2.80
2018-11-23T17:50:30.934Z,2.80
2018-11-23T17:52:59.443Z,2.80
2018-11-23T17:55:27.761Z,2.80
2018-11-23T17:57:56.368Z,2.80
2018-11-23T18:00:26.903Z,2.80
2018-11-23T18:02:58.835Z,2.80
2018-11-23T18:05:29.373Z,2.80
2018-11-23T18:08:07.601Z,2.80
2018-11-23T18:10:37.015Z,2.80
2018-11-23T18:13:07.120Z,2.80
2018-11-23T18:15:38.424Z,2.80
2018-11-23T18:18:08.420Z,2.80
2018-11-23T18:20:37.480Z,2.80
2018-11-23T18:23:07.941Z,2.80
2018-11-23T18:25:39.789Z,2.80
2018-11-23T18:28:08.692Z,2.80
2018-11-23T18:30:38.160Z,2.80
2018-11-23T18:33:09.283Z,2.80
2018-11-23T18:35:37.813Z,2.80
2018-11-23T18:38:06.231Z,2.80
2018-11-23T18:40:37.394Z,2.80
2018-11-23T18:43:02.748Z,2.80
2018-11-23T18:45:31.017Z,2.80
2018-11-23T18:47:59.466Z,2.80
2018-11-23T18:50:27.736Z,2.80
2018-11-23T18:52:56.131Z,2.90
2018-11-23T18:55:24.417Z,2.90
2018-11-23T18:57:56.387Z,2.80
2018-11-23T19:00:24.632Z,2.90
2018-11-23T19:02:53.566Z,2.90
2018-11-23T19:05:23.267Z,2.90
2018-11-23T19:07:51.610Z,2.90
2018-11-23T19:10:19.880Z,2.90
2018-11-23T19:12:48.135Z,2.90
2018-11-23T19:15:25.243Z,2.80
2018-11-23T19:17:46.363Z,2.80
2018-11-23T19:20:18.847Z,2.90
2018-11-23T19:22:51.074Z,2.90
2018-11-23T19:25:19.850Z,2.90
2018-11-23T19:27:54.426Z,2.90
2018-11-23T19:30:28.585Z,2.90
2018-11-23T19:32:52.835Z,2.90
2018-11-23T19:35:21.332Z,2.90
2018-11-23T19:37:49.616Z,2.90
2018-11-23T19:40:17.906Z,2.90
2018-11-23T19:42:46.219Z,2.90
2018-11-23T19:45:15.619Z,2.90
2018-11-23T19:47:43.917Z,2.90
2018-11-23T19:50:17.097Z,2.90
2018-11-23T19:52:45.478Z,2.90
2018-11-23T19:55:14.823Z,2.90
2018-11-23T19:57:43.304Z,2.90
2018-11-23T20:00:15.918Z,2.90
2018-11-23T20:02:45.174Z,2.90
2018-11-23T20:05:13.510Z,2.90
2018-11-23T20:07:41.838Z,2.90
2018-11-23T20:10:11.891Z,2.90
2018-11-23T20:12:40.184Z,2.90
2018-11-23T20:15:13.319Z,2.90
2018-11-23T20:17:41.703Z,2.90
2018-11-23T20:20:11.051Z,2.90
2018-11-23T20:22:39.608Z,3.00
2018-11-23T20:25:09.738Z,3.00
2018-11-23T20:27:38.248Z,2.90
2018-11-23T20:30:14.469Z,2.90
2018-11-23T20:32:43.035Z,2.90
2018-11-23T20:35:12.339Z,2.90
2018-11-23T20:37:40.597Z,2.90
2018-11-23T20:40:11.407Z,2.90
2018-11-23T20:42:39.676Z,2.90
2018-11-23T20:45:09.514Z,2.90
2018-11-23T20:47:37.747Z,2.90
2018-11-23T20:50:08.414Z,2.90
2018-11-23T20:52:36.728Z,2.90
2018-11-23T20:55:06.679Z,2.90
2018-11-23T20:57:34.970Z,2.90
2018-11-23T21:00:04.155Z,2.90
2018-11-23T21:02:32.431Z,2.90
2018-11-23T21:05:00.725Z,2.90
2018-11-23T21:07:28.983Z,2.90
2018-11-23T21:09:57.256Z,2.90
2018-11-23T21:12:25.527Z,2.90
2018-11-23T21:14:53.763Z,3.00
2018-11-23T21:17:22.056Z,3.00
2018-11-23T21:19:50.299Z,3.00
2018-11-23T21:22:18.560Z,3.00
2018-11-23T21:24:46.840Z,3.00
2018-11-23T21:27:15.163Z,3.00
2018-11-23T21:29:43.443Z,3.00
2018-11-23T21:32:11.783Z,3.00
2018-11-23T21:34:40.069Z,3.00
2018-11-23T21:37:08.299Z,3.00
2018-11-23T21:39:37.210Z,3.00
2018-11-23T21:42:06.752Z,3.00
2018-11-23T21:44:35.118Z,3.00
2018-11-23T21:47:03.406Z,3.00
2018-11-23T21:49:31.691Z,3.00
2018-11-23T21:51:59.952Z,3.00
2018-11-23T21:54:28.252Z,3.00
2018-11-23T21:56:56.497Z,3.00
2018-11-23T21:59:24.823Z,3.00
2018-11-23T22:01:53.047Z,3.00
2018-11-23T22:04:21.415Z,3.00
2018-11-23T22:06:55.447Z,3.00
2018-11-23T22:09:24.940Z,3.00
2018-11-23T22:11:53.195Z,3.00
2018-11-23T22:14:21.466Z,3.00
2018-11-23T22:16:49.731Z,3.00
2018-11-23T22:19:18.137Z,3.00
2018-11-23T22:21:46.446Z,3.00
2018-11-23T22:24:14.732Z,3.00
2018-11-23T22:26:42.991Z,3.00
2018-11-23T22:29:11.335Z,3.00
2018-11-23T22:31:39.596Z,3.00
2018-11-23T22:34:08.042Z,3.00
2018-11-23T22:36:36.294Z,3.00
2018-11-23T22:39:08.132Z,3.00
2018-11-23T22:41:36.688Z,3.00
2018-11-23T22:44:05.134Z,3.00
2018-11-23T22:46:33.399Z,3.00
2018-11-23T22:49:01.656Z,3.00
2018-11-23T22:51:29.887Z,3.10
2018-11-23T22:53:58.159Z,3.00
2018-11-23T22:56:26.451Z,3.00
2018-11-23T22:58:55.543Z,3.10
2018-11-23T23:01:23.016Z,3.10
2018-11-23T23:03:51.267Z,3.10
2018-11-23T23:06:19.504Z,3.00
2018-11-23T23:08:47.787Z,3.00
2018-11-23T23:11:16.054Z,3.00
2018-11-23T23:13:44.266Z,3.00
2018-11-23T23:16:12.548Z,3.00
2018-11-23T23:18:40.795Z,3.00
2018-11-23T23:21:09.071Z,3.00
2018-11-23T23:23:37.303Z,3.10
2018-11-23T23:26:05.595Z,3.10
2018-11-23T23:28:33.893Z,3.00
2018-11-23T23:31:02.352Z,3.00
2018-11-23T23:33:30.614Z,3.00
2018-11-23T23:35:58.883Z,3.00
2018-11-23T23:38:27.202Z,3.00
2018-11-23T23:40:55.460Z,3.00
2018-11-23T23:43:23.711Z,3.00
2018-11-23T23:45:51.972Z,3.00
2018-11-23T23:48:20.399Z,3.00
2018-11-23T23:50:48.659Z,3.00
2018-11-23T23:53:16.911Z,3.00
2018-11-23T23:55:45.207Z,3.00
2018-11-23T23:58:13.483Z,3.00
